x

Caribbean Valley - 76 Nm Ssw Of Plymouth, Montserrat (42060) Wave Buoy

12:50pm - Thu 29th Jan 2015 All times are AST. -4 hours from GMT.

  • Sig Wave height 4.3ft
  • Swell Direction
  • Peak Period 8s
  • Average Period 5s
  • Wind
    9mph, 11mph gusts
  • Sea Temp 81°f
  • Air Temp 79°f
  • Sea Pressure 1015.4mb
  • Caribbean Valley - 76 Nm Ssw Of Plymouth, Montserrat
  • Caribbean Valley - 76 Nm Ssw Of Plymouth, Montserrat

More Historic Weather Station data

Upgrade to MSW Pro to gain access to the past 30 days of data for over 8000 Wavebouys and Weather Stations around the globe.

Join Pro

Comparision Forecast

View Surf forecast
   
Thu 01/29 12:50pm 4.5ft 8s 5s 9 11 mph 1015.4mb 81f 79f
11:50am 4.5ft 8s 5s 11 13 mph 1016mb 81f 79f
10:50am 4.5ft 8s 5s 11 13 mph 1016.6mb 81f 79f
9:50am 4.5ft 8s 5s 13 16 mph 1016.9mb 81f 79f
8:50am 4.5ft 8s 5s 13 18 mph 1016.4mb 81f 79f
7:50am 4ft 8s 5s 13 16 mph 1015.4mb 81f 79f
6:50am 4ft 8s 5s 13 16 mph 1014.8mb 81f 79f
5:50am 4ft 8s 5s 13 18 mph 1014mb 81f 79f
4:50am 4.5ft 5s 5s 13 16 mph 1013.7mb 81f 79f
3:50am 4ft 5s 5s 13 16 mph 1013.7mb 81f 79f
2:50am 4.5ft 6s 5s 13 16 mph 1014mb 81f 79f
1:50am 4.5ft 8s 5s 13 16 mph 1014.6mb 81f 80f
12:50am 4ft 8s 5s 13 16 mph 1015mb 81f 80f
Wed 01/28 11:50pm 4ft 8s 5s 11 13 mph 1015.2mb 81f 79f
10:50pm 4.5ft 8s 5s 9 13 mph 1015.4mb 81f 80f
9:50pm 4ft 7s 5s 13 16 mph 1015.3mb 81f 79f
8:50pm 4.5ft 7s 5s 13 16 mph 1015mb 81f 80f
7:50pm 4ft 7s 5s 13 16 mph 1014.6mb 81f 80f
6:50pm 4ft 6s 5s 11 13 mph 1014.2mb 81f 80f
5:50pm 4ft 8s 5s 11 13 mph 1013.9mb 81f 80f
4:50pm 4ft 6s 5s 11 13 mph 1013.9mb 81f 80f
3:50pm 4.5ft 5s 5s 13 18 mph 1013.7mb 81f 80f
2:50pm 4.5ft 8s 5s 13 16 mph 1014.2mb 81f 80f
1:50pm 4.5ft 6s 5s 13 18 mph 1014.6mb 81f 80f
12:50pm 4.5ft 8s 5s 16 18 mph 1015.5mb 81f 80f
11:50am 4.5ft 6s 5s 18 20 mph 1016.5mb 81f 80f
10:50am 4.5ft 6s 5s 13 16 mph 1017.3mb 81f 80f
9:50am 4.5ft 6s 5s 13 16 mph 1017.4mb 81f 80f
8:50am 4.5ft 8s 5s 13 16 mph 1016.9mb 81f 80f
7:50am 4.5ft 8s 5s 13 16 mph 1016.1mb 81f 80f
6:50am 4.5ft 6s 5s 13 16 mph 1015.5mb 81f 79f
5:50am 5ft 8s 5s 18 20 mph 1014.7mb 81f 80f
4:50am 4.5ft 6s 5s 16 18 mph 1014.2mb 81f 80f
3:50am 4.5ft 7s 5s 18 20 mph 1013.9mb 81f 79f
2:50am 5ft 6s 5s 18 22 mph 1014.3mb 81f 80f
1:50am 5ft 6s 5s 18 22 mph 1014.9mb 81f 80f
12:50am 5ft 6s 5s 18 20 mph 1015.6mb 81f 80f
Tue 01/27 11:50pm 4.5ft 6s 5s 16 20 mph 1016.2mb 81f 80f
10:50pm 4.5ft 8s 5s 13 18 mph 1016.6mb 81f 80f
9:50pm 4.5ft 7s 5s 16 22 mph 1016.8mb 81f 79f
8:50pm 4.5ft 6s 5s 16 18 mph 1016.5mb 81f 80f
7:50pm 4.5ft 6s 5s 13 16 mph 1016mb 81f 80f
6:50pm 4.5ft 6s 5s 11 13 mph 1015.6mb 81f 80f
5:50pm 4.5ft 7s 5s 9 11 mph 1015.3mb 81f 80f
4:50pm 4.5ft 6s 5s 11 16 mph 1014.7mb 81f 80f
3:50pm 4.5ft 6s 5s 18 20 mph 1014.2mb 81f 80f
2:50pm 4.5ft 5s 5s 18 20 mph 1014.5mb 81f 80f
1:50pm 4.5ft 5s 5s 18 22 mph 1015.2mb 81f 80f
12:50pm 4.5ft 6s 5s 20 22 mph 1015.8mb 81f 80f
11:50am 4.5ft 7s 5s 18 22 mph 1016.5mb 81f 80f
10:50am 4.5ft 6s 5s 18 20 mph 1017.1mb 81f 80f
9:50am 5ft 7s 5s 18 20 mph 1017.1mb 81f 80f
8:50am 4.5ft 7s 5s 16 20 mph 1016.9mb 81f 80f
7:50am 4.5ft 7s 5s 18 22 mph 1015.9mb 81f 80f
6:50am 5ft 7s 5s 16 18 mph 1015.3mb 81f 79f
5:50am 5ft 7s 5s 16 18 mph 1014.8mb 81f 79f
4:50am 5ft 7s 5s 22 25 mph 1014.2mb 81f 80f
3:50am 5ft 6s 5s 18 22 mph 1014.4mb 81f 80f
2:50am 5ft 7s 5s 18 20 mph 1014.8mb 81f 80f
1:50am 5.5ft 6s 5s 18 20 mph 1015.4mb 81f 80f
12:50am 5ft 7s 5s 18 20 mph 1015.7mb 81f 80f
Mon 01/26 11:50pm 5.5ft 6s 5s 18 22 mph 1015.9mb 81f 80f
10:50pm 5ft 7s 5s 18 22 mph 1016mb 81f 80f
9:50pm 5ft 7s 5s 20 22 mph 1015.9mb 81f 80f
8:50pm 5ft 7s 5s 20 25 mph 1015.6mb 81f 80f
7:50pm 5ft 7s 5s 20 22 mph 1015.1mb 81f 80f
6:50pm 4.5ft 6s 5s 20 22 mph 1014.4mb 81f 81f
5:50pm 4ft 7s 5s 13 16 mph 1014.5mb 81f 80f
4:50pm 4.5ft 6s 5s 11 13 mph 1014.3mb 81f 80f
3:50pm 4.5ft 6s 5s 13 16 mph 1014.1mb 81f 80f
2:50pm 4.5ft 6s 5s 13 16 mph 1014.4mb 81f 80f
1:50pm 4.5ft 6s 5s 16 18 mph 1014.8mb 81f 80f
12:50pm 4.5ft 6s 5s 16 18 mph 1015.7mb 81f 80f
11:50am 4.5ft 6s 5s 20 22 mph 1015.9mb 81f 80f
10:50am 4.5ft 6s 5s 20 22 mph 1016.5mb 81f 80f
9:50am 5ft 6s 5s 20 22 mph 1016.5mb 81f 80f
8:50am 5ft 6s 5s 22 25 mph 1015.8mb 81f 80f
7:50am 4.5ft 6s 5s 20 22 mph 1015.1mb 81f 80f
6:50am 4.5ft 5s 4s 20 25 mph 1014.8mb 81f 79f
5:50am 4.5ft 5s 5s 20 27 mph 1013.9mb 81f 79f
4:50am 4.5ft 5s 5s 20 25 mph 1013.6mb 81f 79f
3:50am 4ft 5s 4s 20 22 mph 1013.8mb 81f 79f
2:50am 4.5ft 5s 5s 20 22 mph 1014.4mb 81f 79f
1:50am 4.5ft 5s 5s 18 22 mph 1015mb 81f 79f
12:50am 4.5ft 5s 5s 20 22 mph 1015.5mb 81f 79f
Sun 01/25 11:50pm 4.5ft 6s 5s 20 22 mph 1015.9mb 81f 79f
10:50pm 4ft 6s 4s 18 22 mph 1016mb 81f 79f
9:50pm 4ft 9s 5s 20 25 mph 1016.2mb 81f 80f
8:50pm 3.5ft 6s 5s 18 20 mph 1016mb 81f 80f
7:50pm 3.5ft 5s 5s 13 18 mph 1015.6mb 81f 80f
6:50pm 3.5ft 6s 5s 13 18 mph 1015.1mb 81f 80f
5:50pm 3.5ft 6s 5s 13
mph
1015.1mb 81f 80f